Monday, January 21, 2019, 5:13 PM EST
Back to Local

KPSM, Pease Air Force Base / Portsmouth

Location: Portsmouth, NH, United States Lat: 43.083
Local Time: 5:13 PM EST (22:13 GMT) Lon: -70.817
Time Zone: US/Eastern Elev: 101 ft

Show me the last for .
Show Decoded

2019-01-21 15:56 METAR KPSM 212056Z 30013KT 7SM SCT017 OVC090 M17/M24 A2981 RMK AO2A PK WND
                 32032/50 SLP099 T11671244 53029 =
2019-01-21 15:21 METAR KPSM 212021Z 29018G23KT 7SM SCT013 OVC090 M17/M25 A2978 RMK AO2A =
2019-01-21 15:11 METAR KPSM 212011Z 29013G26KT 7SM OVC018 M17/M24 A2978 RMK AO2A PRESRR =
2019-01-21 14:56 METAR KPSM 211956Z 28021G28KT 7SM OVC022 M17/M25 A2976 RMK AO2A PK WND 30029/52
                 SLP082 T11671247 =
2019-01-21 14:06 METAR KPSM 211906Z 30018G25KT 3SM BLSN BR BKN024 OVC034 M16/M24 A2974 RMK AO2A =
2019-01-21 13:56 METAR KPSM 211856Z 28017G24KT 3SM BLSN BR SCT014 OVC034 M16/M24 A2974 RMK AO2A
                 PK WND 28026/07 SLP076 T11631239 =
2019-01-21 13:24 METAR KPSM 211824Z 29015G23KT 7SM SCT013 OVC040 M16/M25 A2973 RMK AO2A =
2019-01-21 12:56 METAR KPSM 211756Z 29017G25KT 3SM BLSN BR BKN013 OVC039 M17/M24 A2973 RMK AO2A
                 PK WND 30027/25 SLP072 T11671241 11164 21173 50001 =
2019-01-21 12:48 METAR KPSM 211748Z 29017G25KT 3SM BLSN BR BKN013 OVC041 M17/M24 A2972 RMK AO2A =
2019-01-21 11:56 METAR KPSM 211656Z 28011KT 7SM BKN032 OVC070 M17/M24 A2972 RMK AO2A PK WND
                 30026/10 SLP069 T11661240 =
2019-01-21 11:50 METAR KPSM 211650Z 29011KT 7SM OVC029 M17/M24 A2973 RMK AO2A =
2019-01-21 10:56 METAR KPSM 211556Z 29017G23KT 1 1/4SM BLSN BR OVC029 M17/M24 A2973 RMK AO2A
                 SLP072 T11721236 =
2019-01-21 09:56 METAR KPSM 211456Z 28013G21KT 1 1/2SM BLSN BR OVC035 M17/M23 A2972 RMK AO2A PK
                 WND 30026/02 SLP069 T11721230 52037 =
2019-01-21 09:40 METAR KPSM 211440Z 28016KT 1 1/2SM BLSN BR OVC037 M17/M24 A2971 RMK AO2A =
2019-01-21 09:20 METAR KPSM 211420Z 27016G22KT 3SM BLSN BR OVC041 M17/M24 A2969 RMK AO2A =
2019-01-21 08:56 METAR KPSM 211356Z 29015G21KT 7SM OVC036 M17/M25 A2968 RMK AO2A SLP055 T11711247
                 =
2019-01-21 07:56 METAR KPSM 211256Z 28013G20KT 10SM BKN033 OVC050 M17/M24 A2965 RMK AO2A SLP045
                 T11671244 =
2019-01-21 06:56 METAR KPSM 211156Z 28013G19KT 10SM SCT035 OVC046 M17/M24 A2962 RMK AO2A SLP035
                 4/006 70011 T11661240 11151 21167 52028 =
2019-01-21 05:56 METAR KPSM 211056Z 29013G20KT 10SM OVC036 M17/M24 A2958 RMK AO2A SLP021
                 T11671241 =
2019-01-21 04:56 METAR KPSM 210956Z 28011G17KT 10SM OVC036 M17/M24 A2956 RMK AO2A SLP014
                 T11661240 =
2019-01-21 03:56 METAR KPSM 210856Z COR 29017G21KT 10SM OVC033 M16/M24 A2953 RMK AO2A SLP004
                 T11641238 52021 COR 0904 =
2019-01-21 02:56 METAR KPSM 210756Z 28014G20KT 10SM OVC032 M16/M24 A2952 RMK AO2A SLP001
                 T11621236 =
2019-01-21 01:56 METAR KPSM 210656Z 28015KT 10SM OVC032 M16/M23 A2950 RMK AO2A SLP994 T11581230 =
2019-01-21 00:56 METAR KPSM 210556Z COR 28012G19KT 10SM OVC032 M15/M22 A2947 RMK AO2A SLP984
                 4/006 T11511222 11061 21151 52025 COR 0602 =
2019-01-20 23:56 METAR KPSM 210456Z 28011G21KT 10SM OVC033 M14/M21 A2946 RMK AO2A PK WND 30028/09
                 SLP980 T11441213 410611144 =
2019-01-20 22:56 METAR KPSM 210356Z 29016G23KT 10SM OVC033 M13/M21 A2942 RMK AO2A PK WND 29034/13
                 SLP967 T11351209 =
2019-01-20 22:16 METAR KPSM 210316Z COR 28014G20KT 10SM OVC031 M13/M19 A2941 RMK AO2A C0R 0322 =
2019-01-20 21:56 METAR KPSM 210256Z 30020G27KT 10SM OVC029 M12/M19 A2940 RMK AO2A PK WND 31034/19
                 SLP960 T11231189 52034 =
2019-01-20 21:09 METAR KPSM 210209Z 29016G25KT 10SM BKN029 OVC060 M10/M16 A2936 RMK AO2A =
2019-01-20 20:56 METAR KPSM 210156Z 29013G20KT 10SM SCT028 OVC060 M09/M15 A2935 RMK AO2A PK WND
                 27029/15 SLP943 T10901146 =
2019-01-20 20:21 METAR KPSM 210121Z 29018G29KT 10SM SCT020 BKN060 M08/M13 A2934 RMK AO2A =
2019-01-20 19:56 METAR KPSM 210056Z 29015G22KT 10SM BKN017 BKN060 M07/M11 A2933 RMK AO2A SLP936
                 T10661107 =
2019-01-20 19:44 METAR KPSM 210044Z 28014G20KT 8SM BKN017 BKN060 M06/M08 A2932 RMK AO2A =
2019-01-20 18:56 METAR KPSM 202356Z COR 29005KT 7SM OVC049 M06/M08 A2929 RMK AO2A SNE34 SLP922
                 4/007 P0000 60003 T10651083 11065 21106 55004 COR 0003 =
2019-01-20 18:34 METAR KPSM 202334Z 31007KT 7SM SCT039 OVC049 M07/M08 A2929 RMK AO2A SNE34 =
2019-01-20 18:25 METAR KPSM 202325Z 31008KT 3SM -SN BR FEW015 SCT021 BKN039 OVC047 M07/M09 A2929
                 RMK AO2A =
2019-01-20 17:56 METAR KPSM 202256Z 31009KT 2SM -SN BR BKN005 OVC021 M07/M08 A2930 RMK AO2A
                 SNE00PLE00FZRAB00FZRAE20SNB20SNE35FZRAB35FZRE55SNB55 SLP926 P0000 T10711084 =
2019-01-20 17:35 METAR KPSM 202235Z 30010KT 1 1/2SM -FZRA BR FEW002 BKN005 OVC011 M08/M09 A2930
                 RMK AO2A SNE00PLE00FZRAB00FZRAE20SNB20SNE35FZRAB35 =
2019-01-20 17:20 METAR KPSM 202220Z 30009KT 1 1/2SM -SN BR SCT002 BKN005 OVC021 M08/M10 A2930 RMK
                 AO2A SNE00PLE00FZRAB00FZRAE20SNB20 =

Support USWX by starting your Amazon purchase here.